Latest Weather Observations for Young

IDN60801

Issued at 12:32 pm EST Thursday 26 May 2016 (issued every 30 minutes, with the page automatically refreshed every 10 minutes)

About weather observations | Map of weather stations | Latest weather observations for NSW | Other Formats
Station Details ID: 073138 Name: YOUNG AIRPORT Lat: -34.25 Lon: 148.25 Height: 379.6 m
Data from the previous 72 hours. | See also: Recent months at Young
Date/Time
EST
Temp
°C
App
Temp
°C
Dew
Point
Rel
Hum
%
Delta-T
°C
Wind Press
QNH
hPa
Press
MSL
hPa
Rain
since 9 am
mm
Dir
 
Spd
km/h
Gust
km/h
Spd
kts
Gust
kts
26/12:30pm 10.9 7.0 10.7 99 0.1 NNW 22 35 12 19 1004.2 1004.2 9.0
26/12:00pm 10.2 6.5 10.1 99 0.1 NNW 20 32 11 17 1004.6 1004.6 8.8
26/11:30am 9.8 6.0 9.7 99 0.1 NNW 20 35 11 19 1005.0 1005.0 8.4
26/11:00am 9.6 5.7 9.5 99 0.1 NNW 20 30 11 16 1005.7 1005.8 7.4
26/10:30am 9.3 5.3 9.2 99 0.1 NNW 20 30 11 16 1006.2 1006.3 6.2
26/10:00am 9.1 3.9 9.0 99 0.1 NNW 26 37 14 20 1006.5 1006.5 5.0
26/09:30am 9.0 5.5 8.9 99 0.0 NNW 17 26 9 14 1006.5 1006.5 2.8
26/09:00am 8.9 4.5 8.8 99 0.0 N 22 30 12 16 1006.6 1006.6 23.2
26/08:30am 9.0 5.5 8.9 99 0.0 N 17 30 9 16 1006.9 1006.9 21.8
26/08:00am 8.8 5.7 8.7 99 0.0 N 15 20 8 11 1007.0 1007.0 20.0
26/07:30am 8.8 5.3 8.7 99 0.0 NNE 17 24 9 13 1007.2 1007.2 17.8
26/07:00am 8.8 6.4 8.7 99 0.0 N 11 17 6 9 1007.9 1008.0 16.6
26/06:30am 8.9 6.2 8.8 99 0.0 NNE 13 19 7 10 1008.4 1008.5 15.8
26/06:00am 8.9 6.2 8.8 99 0.0 N 13 19 7 10 1009.2 1009.2 13.0
26/05:30am 9.0 6.3 8.9 99 0.0 N 13 19 7 10 1009.0 1009.1 10.8
26/05:00am 9.1 5.7 9.0 99 0.1 N 17 26 9 14 1009.2 1009.2 8.2
26/04:30am 9.3 6.3 9.2 99 0.1 N 15 24 8 13 1009.7 1009.7 6.0
26/04:00am 9.5 6.5 9.4 99 0.1 N 15 22 8 12 1010.2 1010.3 5.0
26/03:30am 9.4 7.2 9.3 99 0.1 N 11 17 6 9 1010.7 1010.8 4.8
26/03:00am 9.6 7.0 9.5 99 0.1 N 13 17 7 9 1011.2 1011.3 4.0
26/02:30am 9.4 7.9 9.3 99 0.1 N 7 11 4 6 1011.5 1011.6 3.6
26/02:00am 9.5 9.0 9.2 98 0.2 N 2 7 1 4 1011.5 1011.6 2.8
26/01:30am 9.6 9.4 9.1 97 0.3 CALM 0 6 0 3 1011.7 1011.8 2.6
26/01:00am 9.7 8.3 8.9 95 0.4 N 6 7 3 4 1012.1 1012.1 2.2
26/12:30am 9.9 7.9 8.7 92 0.6 NNW 9 15 5 8 1012.6 1012.7 1.6
26/12:00am 10.1 8.4 8.5 90 0.8 N 7 11 4 6 1012.5 1012.6 0.4
 
Date/Time
EST
Temp
°C
App
Temp
°C
Dew
Point
Rel
Hum
%
Delta-T
°C
Wind Press
QNH
hPa
Press
MSL
hPa
Rain
since 9 am
mm
Dir
 
Spd
km/h
Gust
km/h
Spd
kts
Gust
kts
25/11:30pm 10.1 8.5 8.2 88 0.9 NNW 6 9 3 5 1012.6 1012.7 0.0
25/11:00pm 10.1 7.9 8.0 87 1.0 N 9 13 5 7 1012.7 1012.8 0.0
25/10:30pm 10.3 8.1 7.9 85 1.2 N 9 13 5 7 1012.9 1013.0 0.0
25/10:00pm 10.4 8.7 7.6 83 1.4 N 6 7 3 4 1013.6 1013.7 0.0
25/09:30pm 10.4 8.5 7.6 83 1.4 N 7 9 4 5 1014.2 1014.3 0.0
25/09:00pm 10.1 8.3 7.9 86 1.1 NW 7 11 4 6 1014.4 1014.6 0.0
25/08:30pm 9.5 9.0 7.9 90 0.8 CALM 0 0 0 0 1013.9 1014.0 0.0
25/08:00pm 9.5 8.9 7.6 88 0.9 CALM 0 0 0 0 1014.2 1014.3 0.0
25/07:30pm 9.6 9.1 7.7 88 0.9 CALM 0 0 0 0 1014.5 1014.7 0.0
25/07:00pm 9.9 9.3 7.2 83 1.3 CALM 0 0 0 0 1015.2 1015.3 0.0
25/06:30pm 10.2 9.6 7.4 83 1.4 CALM 0 0 0 0 1015.2 1015.3 0.0
25/06:00pm 10.4 9.7 7.1 80 1.6 CALM 0 0 0 0 1015.3 1015.4 0.0
25/05:30pm 10.6 9.9 6.9 78 1.8 CALM 0 0 0 0 1015.1 1015.2 0.0
25/05:00pm 11.5 9.6 6.6 72 2.4 NW 6 7 3 4 1015.3 1015.4 0.0
25/04:30pm 12.6 10.5 6.6 67 2.9 NW 7 11 4 6 1015.5 1015.6 0.0
25/04:00pm 13.1 10.6 6.7 65 3.1 NW 9 13 5 7 1015.5 1015.6 0.0
25/03:30pm 13.4 10.9 6.7 64 3.3 NW 9 15 5 8 1015.6 1015.7 0.0
25/03:00pm 13.7 10.9 6.8 63 3.4 NW 11 17 6 9 1015.4 1015.5 0.0
25/02:30pm 13.6 11.2 6.9 64 3.3 WNW 9 13 5 7 1015.4 1015.5 0.0
25/02:00pm 13.7 11.3 7.0 64 3.3 WSW 9 15 5 8 1015.8 1015.9 0.0
25/01:30pm 13.7 11.9 7.2 65 3.2 SW 6 9 3 5 1016.0 1016.1 0.0
25/01:00pm 13.4 10.9 6.5 63 3.4 WNW 9 11 5 6 1016.6 1016.8 0.0
25/12:30pm 13.4 11.4 7.2 66 3.1 WNW 7 11 4 6 1016.8 1017.0 0.0
25/12:00pm 13.0 10.7 7.5 69 2.7 N 9 13 5 7 1017.3 1017.5 0.0
25/11:30am 12.6 10.3 7.5 71 2.5 NW 9 11 5 6 1017.8 1017.9 0.0
25/11:00am 12.5 10.9 7.8 73 2.3 NE 6 9 3 5 1018.4 1018.5 0.0
25/10:30am 12.5 11.6 7.8 73 2.3 NE 2 7 1 4 1019.1 1019.3 0.0
25/10:00am 10.2 9.6 7.4 83 1.4 CALM 0 0 0 0 1019.2 1019.4 0.0
25/09:30am 8.7 8.1 7.2 90 0.7 CALM 0 0 0 0 1019.3 1019.5 0.0
25/09:00am 6.3 5.3 5.7 96 0.3 CALM 0 0 0 0 1019.2 1019.4 0.0
25/08:30am 4.3 1.9 4.2 99 0.0 S 6 7 3 4 1019.4 1019.6 0.0
25/08:00am 1.8 -0.7 1.7 99 0.0 SW 4 7 2 4 1019.4 1019.6 0.0
25/07:30am 1.0 -2.0 0.9 99 0.0 SSW 6 7 3 4 1019.4 1019.6 0.0
25/07:00am 0.3 -3.0 0.2 99 0.0 SSW 7 7 4 4 1019.4 1019.6 0.0
25/06:30am -0.2 -3.4 -0.3 99 0.0 SSW 6 7 3 4 1019.5 1019.7 0.0
25/06:00am -0.6 -4.0 -0.7 99 0.0 SW 7 9 4 5 1019.3 1019.5 0.0
25/05:30am -1.1 -4.4 -1.4 98 0.1 S 6 7 3 4 1019.0 1019.2 0.0
25/05:00am -1.0 -4.3 -1.3 98 0.1 SSW 6 7 3 4 1019.0 1019.2 0.0
25/04:30am -0.8 -4.1 -1.1 98 0.1 SSW 6 7 3 4 1018.9 1019.1 0.0
25/04:00am -0.6 -3.9 -0.9 98 0.1 S 6 7 3 4 1018.9 1019.1 0.0
25/03:30am -0.2 -3.6 -0.3 99 0.0 SSW 7 7 4 4 1018.8 1018.9 0.0
25/03:00am -0.7 -4.2 -1.0 98 0.1 SW 7 7 4 4 1019.2 1019.4 0.0
25/02:30am -0.2 -3.0 -0.3 99 0.0 S 4 7 2 4 1019.3 1019.5 0.0
25/02:00am 0.0 -3.2 -0.3 98 0.1 S 6 7 3 4 1019.6 1019.8 0.0
25/01:30am 0.6 -1.3 0.5 99 0.0 CALM 0 0 0 0 1019.7 1019.9 0.0
25/01:00am 0.5 -1.5 0.2 98 0.1 CALM 0 0 0 0 1019.9 1020.1 0.0
25/12:30am 0.7 -1.2 0.3 97 0.1 CALM 0 0 0 0 1020.0 1020.2 0.0
25/12:00am 0.9 -1.0 0.5 97 0.2 CALM 0 0 0 0 1020.5 1020.6 0.0
 
Date/Time
EST
Temp
°C
App
Temp
°C
Dew
Point
Rel
Hum
%
Delta-T
°C
Wind Press
QNH
hPa
Press
MSL
hPa
Rain
since 9 am
mm
Dir
 
Spd
km/h
Gust
km/h
Spd
kts
Gust
kts
24/11:30pm 1.5 -0.3 1.2 98 0.1 CALM 0 0 0 0 1020.8 1020.9 0.0
24/11:00pm 1.6 -0.2 1.0 96 0.2 CALM 0 0 0 0 1020.5 1020.6 0.0
24/10:30pm 2.0 0.2 1.4 96 0.2 CALM 0 0 0 0 1020.7 1020.8 0.0
24/10:00pm 2.1 0.3 1.5 96 0.2 CALM 0 0 0 0 1020.9 1021.0 0.0
24/09:30pm 2.5 0.8 1.6 94 0.4 CALM 0 0 0 0 1020.8 1020.9 0.0
24/09:00pm 3.2 1.6 2.3 94 0.4 CALM 0 0 0 0 1020.7 1020.8 0.0
24/08:30pm 3.6 1.9 2.1 90 0.6 CALM 0 0 0 0 1020.9 1021.0 0.0
24/08:00pm 4.9 3.5 3.6 91 0.6 CALM 0 0 0 0 1020.9 1021.0 0.0
24/07:30pm 4.9 3.4 2.9 87 0.8 CALM 0 0 0 0 1020.6 1020.7 0.0
24/07:00pm 6.4 3.4 4.1 85 1.0 WSW 9 11 5 6 1020.1 1020.3 0.0
24/06:30pm 6.4 5.0 3.7 83 1.2 CALM 0 0 0 0 1020.0 1020.2 0.0
24/06:00pm 8.1 5.7 4.1 76 1.8 W 6 7 3 4 1019.7 1019.9 0.0
24/05:30pm 10.4 8.4 4.5 67 2.7 WNW 4 7 2 4 1019.4 1019.6 0.0
24/05:00pm 11.9 9.6 4.9 62 3.3 W 6 11 3 6 1019.3 1019.5 0.0
24/04:30pm 12.9 9.7 5.1 59 3.7 W 11 20 6 11 1019.4 1019.6 0.0
24/04:00pm 13.7 9.8 5.3 57 4.0 W 15 30 8 16 1019.2 1019.4 0.0
24/03:30pm 13.2 8.6 5.4 59 3.7 WSW 19 28 10 15 1019.2 1019.4 0.0
24/03:00pm 14.6 10.9 6.2 57 4.1 W 15 28 8 15 1019.0 1019.2 0.0
24/02:30pm 14.4 9.8 5.5 55 4.3 WSW 19 26 10 14 1019.0 1019.2 0.0
24/02:00pm 13.4 9.9 5.6 59 3.7 WSW 13 20 7 11 1019.0 1019.2 0.0
24/01:30pm 13.8 9.5 5.2 56 4.1 W 17 28 9 15 1019.1 1019.3 0.0
24/01:00pm 13.6 9.4 5.7 59 3.8 WSW 17 26 9 14 1019.5 1019.7 0.0
24/12:30pm 12.7 9.3 6.1 64 3.2 WSW 13 24 7 13 1019.9 1020.1 0.0
24/12:00pm 12.1 8.3 5.9 66 3.0 W 15 26 8 14 1020.6 1020.7 0.0
24/11:30am 12.7 8.1 6.5 66 3.0 WSW 20 28 11 15 1021.0 1021.1 0.0
24/11:00am 11.5 7.4 6.2 70 2.5 WSW 17 32 9 17 1021.3 1021.5 0.0
24/10:30am 11.3 7.4 7.0 75 2.1 SW 17 30 9 16 1021.6 1021.8 0.0
24/10:00am 10.8 7.5 6.6 75 2.0 WSW 13 22 7 12 1021.6 1021.8 0.0
24/09:30am 10.9 7.5 7.6 80 1.6 WSW 15 24 8 13 1021.5 1021.7 0.0
24/09:00am 9.7 5.5 7.3 85 1.2 WSW 19 30 10 16 1021.5 1021.7 0.2
24/08:30am 9.1 6.1 7.5 90 0.8 SSW 13 24 7 13 1021.2 1021.4 0.2
24/08:00am 8.5 5.0 7.1 91 0.7 SW 15 20 8 11 1021.1 1021.3 0.2
24/07:30am 8.3 5.1 6.9 91 0.7 SW 13 20 7 11 1021.1 1021.3 0.2
24/07:00am 8.1 5.2 6.6 90 0.7 WSW 11 17 6 9 1020.7 1020.8 0.2
24/06:30am 7.3 5.0 5.0 85 1.0 NW 6 6 3 3 1020.6 1020.7 0.2
24/06:00am 7.0 4.5 4.7 85 1.0 NW 7 9 4 5 1020.0 1020.2 0.2
24/05:30am 6.5 3.4 3.8 83 1.2 N 9 11 5 6 1019.9 1020.1 0.2
24/05:00am 6.1 3.1 3.9 86 1.0 N 9 11 5 6 1020.0 1020.2 0.2
24/04:30am 5.1 2.1 4.1 93 0.4 NNE 9 13 5 7 1020.0 1020.2 0.2
24/04:00am 4.0 1.2 3.1 94 0.4 N 7 9 4 5 1020.1 1020.3 0.2
24/03:30am 4.3 2.0 3.0 91 0.5 NNW 4 6 2 3 1020.3 1020.4 0.2
24/03:00am 5.6 3.2 4.4 92 0.5 N 6 7 3 4 1020.5 1020.6 0.2
24/02:30am 5.5 2.6 4.5 93 0.4 N 9 9 5 5 1020.7 1020.8 0.2
24/02:00am 4.8 3.2 4.4 97 0.2 N 2 9 1 5 1020.7 1020.8 0.2
24/01:30am 4.5 3.2 4.1 97 0.2 CALM 0 0 0 0 1020.8 1020.9 0.2
24/01:00am 4.2 2.9 4.1 99 0.0 CALM 0 0 0 0 1020.8 1020.9 0.2
24/12:30am 2.8 1.2 2.4 97 0.2 CALM 0 0 0 0 1020.9 1021.0 0.2
24/12:00am 2.2 0.4 1.5 95 0.3 CALM 0 0 0 0 1021.0 1021.1 0.2
 
Date/Time
EST
Temp
°C
App
Temp
°C
Dew
Point
Rel
Hum
%
Delta-T
°C
Wind Press
QNH
hPa
Press
MSL
hPa
Rain
since 9 am
mm
Dir
 
Spd
km/h
Gust
km/h
Spd
kts
Gust
kts
23/11:30pm 2.5 0.8 1.6 94 0.4 CALM 0 0 0 0 1021.2 1021.4 0.2
23/11:00pm 3.0 1.3 2.1 94 0.4 CALM 0 0 0 0 1021.3 1021.5 0.2
23/10:30pm 3.2 1.5 2.0 92 0.5 CALM 0 0 0 0 1021.4 1021.6 0.2
23/10:00pm 3.8 2.2 2.5 91 0.5 CALM 0 0 0 0 1021.4 1021.6 0.2
23/09:30pm 4.3 2.7 2.7 89 0.7 CALM 0 0 0 0 1021.6 1021.8 0.2
23/09:00pm 5.5 2.9 3.2 85 1.0 W 6 7 3 4 1021.6 1021.8 0.2
23/08:30pm 5.7 4.3 3.4 85 1.0 CALM 0 0 0 0 1021.2 1021.4 0.2
23/08:00pm 6.6 5.2 3.6 81 1.3 CALM 0 0 0 0 1021.1 1021.3 0.2
23/07:30pm 7.3 4.7 3.2 75 1.8 WSW 6 7 3 4 1020.9 1021.0 0.2
23/07:00pm 8.8 6.3 3.6 70 2.3 WSW 6 7 3 4 1020.6 1020.7 0.2
23/06:30pm 9.7 6.7 3.9 67 2.6 WSW 9 17 5 9 1020.4 1020.5 0.2
23/06:00pm 10.2 7.5 3.9 65 2.8 W 7 11 4 6 1020.0 1020.2 0.2
23/05:30pm 10.7 7.7 4.0 63 3.0 WSW 9 11 5 6 1019.5 1019.7 0.2
23/05:00pm 12.0 8.2 3.8 57 3.7 WSW 13 20 7 11 1019.3 1019.5 0.2
23/04:30pm 13.4 8.8 3.8 52 4.4 WSW 17 24 9 13 1019.0 1019.2 0.2
23/04:00pm 14.1 8.5 3.6 49 4.8 WSW 22 32 12 17 1018.8 1018.9 0.2
23/03:30pm 14.5 8.1 3.3 47 5.2 SW 26 39 14 21 1018.6 1018.7 0.2
23/03:00pm 15.0 8.9 2.5 43 5.7 WSW 24 39 13 21 1018.5 1018.6 0.2
23/02:36pm 15.3 8.3 2.1 41 6.0 SW 28 46 15 25 1018.3 1018.4 0.2
23/02:30pm 15.6 10.0 3.4 44 5.7 WSW 22 33 12 18 1018.2 1018.3 0.2
23/02:00pm 15.8 10.3 3.9 45 5.6 WSW 22 35 12 19 1018.3 1018.4 0.2
23/01:30pm 15.8 9.6 4.5 47 5.4 WSW 26 41 14 22 1018.5 1018.6 0.2
23/01:16pm 15.7 9.1 4.1 46 5.5 WSW 28 46 15 25 1018.6 1018.7 0.2
23/01:00pm 15.8 10.1 5.1 49 5.2 WSW 24 37 13 20 1018.6 1018.7 0.2

Other Formats:

Comma delimited format used in spreadsheet applications
http://www.bom.gov.au/fwo/IDN60801/IDN60801.94712.axf

JavaScript Object Notation format (JSON) in row-major order
http://www.bom.gov.au/fwo/IDN60801/IDN60801.94712.json